sensor_id;sensor_type;location;lat;lon;timestamp;P1;durP1;ratioP1;P2;durP2;ratioP2
55065;SDS011;40964;42.114;24.220;2023-03-01T00:02:04;11.65;;;5.35;;
55065;SDS011;40964;42.114;24.220;2023-03-01T00:04:29;8.60;;;4.80;;
55065;SDS011;40964;42.114;24.220;2023-03-01T00:06:56;12.30;;;5.65;;
55065;SDS011;40964;42.114;24.220;2023-03-01T00:09:22;14.07;;;5.95;;
55065;SDS011;40964;42.114;24.220;2023-03-01T00:11:48;11.55;;;5.05;;
55065;SDS011;40964;42.114;24.220;2023-03-01T00:14:14;14.85;;;5.65;;
55065;SDS011;40964;42.114;24.220;2023-03-01T00:16:41;12.50;;;5.28;;
55065;SDS011;40964;42.114;24.220;2023-03-01T00:19:12;13.95;;;5.43;;
55065;SDS011;40964;42.114;24.220;2023-03-01T00:21:39;11.27;;;5.38;;
55065;SDS011;40964;42.114;24.220;2023-03-01T00:24:05;12.90;;;5.88;;
55065;SDS011;40964;42.114;24.220;2023-03-01T00:26:31;12.05;;;5.35;;
55065;SDS011;40964;42.114;24.220;2023-03-01T00:28:57;11.73;;;4.95;;
55065;SDS011;40964;42.114;24.220;2023-03-01T00:31:24;12.48;;;5.55;;
55065;SDS011;40964;42.114;24.220;2023-03-01T00:33:52;10.95;;;5.35;;
55065;SDS011;40964;42.114;24.220;2023-03-01T00:36:22;14.43;;;6.13;;
55065;SDS011;40964;42.114;24.220;2023-03-01T00:38:49;14.85;;;6.32;;
55065;SDS011;40964;42.114;24.220;2023-03-01T00:41:15;16.60;;;6.05;;
55065;SDS011;40964;42.114;24.220;2023-03-01T00:43:43;17.13;;;6.75;;
55065;SDS011;40964;42.114;24.220;2023-03-01T00:46:11;17.90;;;7.13;;
55065;SDS011;40964;42.114;24.220;2023-03-01T00:48:38;25.65;;;7.15;;
55065;SDS011;40964;42.114;24.220;2023-03-01T00:51:05;15.98;;;7.13;;
55065;SDS011;40964;42.114;24.220;2023-03-01T00:53:38;18.55;;;7.50;;
55065;SDS011;40964;42.114;24.220;2023-03-01T00:56:04;19.48;;;8.23;;
55065;SDS011;40964;42.114;24.220;2023-03-01T00:58:31;28.27;;;9.60;;
55065;SDS011;40964;42.114;24.220;2023-03-01T01:00:57;27.27;;;9.07;;
55065;SDS011;40964;42.114;24.220;2023-03-01T01:03:22;35.08;;;8.90;;
55065;SDS011;40964;42.114;24.220;2023-03-01T01:05:50;25.00;;;7.97;;
55065;SDS011;40964;42.114;24.220;2023-03-01T01:08:17;30.75;;;8.10;;
55065;SDS011;40964;42.114;24.220;2023-03-01T01:10:43;24.65;;;7.57;;
55065;SDS011;40964;42.114;24.220;2023-03-01T01:13:09;65.50;;;8.90;;
55065;SDS011;40964;42.114;24.220;2023-03-01T01:15:35;49.05;;;8.77;;
55065;SDS011;40964;42.114;24.220;2023-03-01T01:18:00;42.03;;;8.15;;
55065;SDS011;40964;42.114;24.220;2023-03-01T01:20:26;35.97;;;7.85;;
55065;SDS011;40964;42.114;24.220;2023-03-01T01:22:52;25.20;;;7.68;;
55065;SDS011;40964;42.114;24.220;2023-03-01T01:25:17;36.53;;;7.30;;
55065;SDS011;40964;42.114;24.220;2023-03-01T01:27:43;27.77;;;7.10;;
55065;SDS011;40964;42.114;24.220;2023-03-01T01:30:09;24.75;;;6.82;;
55065;SDS011;40964;42.114;24.220;2023-03-01T01:32:35;40.47;;;7.30;;
55065;SDS011;40964;42.114;24.220;2023-03-01T01:35:01;39.53;;;7.15;;
55065;SDS011;40964;42.114;24.220;2023-03-01T01:37:27;28.30;;;7.13;;
55065;SDS011;40964;42.114;24.220;2023-03-01T01:39:59;25.55;;;6.85;;
55065;SDS011;40964;42.114;24.220;2023-03-01T01:42:26;24.73;;;7.25;;
55065;SDS011;40964;42.114;24.220;2023-03-01T01:47:52;20.52;;;7.07;;
55065;SDS011;40964;42.114;24.220;2023-03-01T01:50:22;23.83;;;7.15;;
55065;SDS011;40964;42.114;24.220;2023-03-01T01:52:48;23.50;;;6.22;;
55065;SDS011;40964;42.114;24.220;2023-03-01T01:55:21;18.13;;;5.80;;
55065;SDS011;40964;42.114;24.220;2023-03-01T01:57:54;13.55;;;5.65;;
55065;SDS011;40964;42.114;24.220;2023-03-01T02:00:26;16.13;;;5.95;;
55065;SDS011;40964;42.114;24.220;2023-03-01T02:02:57;17.00;;;6.13;;
55065;SDS011;40964;42.114;24.220;2023-03-01T02:08:21;15.63;;;6.00;;
55065;SDS011;40964;42.114;24.220;2023-03-01T02:10:50;13.10;;;4.80;;
55065;SDS011;40964;42.114;24.220;2023-03-01T02:13:17;13.07;;;5.93;;
55065;SDS011;40964;42.114;24.220;2023-03-01T02:15:42;12.88;;;5.30;;
55065;SDS011;40964;42.114;24.220;2023-03-01T02:18:12;12.55;;;5.25;;
55065;SDS011;40964;42.114;24.220;2023-03-01T02:23:19;13.00;;;5.80;;
55065;SDS011;40964;42.114;24.220;2023-03-01T02:25:47;30.05;;;6.03;;
55065;SDS011;40964;42.114;24.220;2023-03-01T02:28:33;13.45;;;4.78;;
55065;SDS011;40964;42.114;24.220;2023-03-01T02:31:01;22.98;;;5.25;;
55065;SDS011;40964;42.114;24.220;2023-03-01T02:33:46;16.83;;;6.00;;
55065;SDS011;40964;42.114;24.220;2023-03-01T02:36:20;9.93;;;4.20;;
55065;SDS011;40964;42.114;24.220;2023-03-01T02:38:50;11.55;;;4.88;;
55065;SDS011;40964;42.114;24.220;2023-03-01T02:41:17;13.52;;;4.70;;
55065;SDS011;40964;42.114;24.220;2023-03-01T02:43:45;17.10;;;5.28;;
55065;SDS011;40964;42.114;24.220;2023-03-01T02:46:21;20.27;;;5.68;;
55065;SDS011;40964;42.114;24.220;2023-03-01T02:48:54;18.75;;;5.10;;
55065;SDS011;40964;42.114;24.220;2023-03-01T02:54:59;11.30;;;4.28;;
55065;SDS011;40964;42.114;24.220;2023-03-01T02:57:29;11.25;;;5.32;;
55065;SDS011;40964;42.114;24.220;2023-03-01T02:59:57;10.98;;;4.22;;
55065;SDS011;40964;42.114;24.220;2023-03-01T03:02:27;9.93;;;4.40;;
55065;SDS011;40964;42.114;24.220;2023-03-01T03:05:02;14.15;;;5.25;;
55065;SDS011;40964;42.114;24.220;2023-03-01T03:07:31;25.88;;;5.25;;
55065;SDS011;40964;42.114;24.220;2023-03-01T03:09:59;20.48;;;5.70;;
55065;SDS011;40964;42.114;24.220;2023-03-01T03:12:25;16.13;;;5.53;;
55065;SDS011;40964;42.114;24.220;2023-03-01T03:14:50;15.52;;;5.28;;
55065;SDS011;40964;42.114;24.220;2023-03-01T03:17:16;10.68;;;4.68;;
55065;SDS011;40964;42.114;24.220;2023-03-01T03:19:41;10.48;;;4.20;;
55065;SDS011;40964;42.114;24.220;2023-03-01T03:22:11;9.63;;;4.43;;
55065;SDS011;40964;42.114;24.220;2023-03-01T03:24:39;8.55;;;4.57;;
55065;SDS011;40964;42.114;24.220;2023-03-01T03:27:05;7.70;;;3.88;;
55065;SDS011;40964;42.114;24.220;2023-03-01T03:29:31;8.70;;;3.85;;
55065;SDS011;40964;42.114;24.220;2023-03-01T03:31:57;10.63;;;4.40;;
55065;SDS011;40964;42.114;24.220;2023-03-01T03:34:23;8.85;;;4.00;;
55065;SDS011;40964;42.114;24.220;2023-03-01T03:36:52;9.55;;;3.85;;
55065;SDS011;40964;42.114;24.220;2023-03-01T03:39:24;10.20;;;4.15;;
55065;SDS011;40964;42.114;24.220;2023-03-01T03:41:52;9.95;;;4.20;;
55065;SDS011;40964;42.114;24.220;2023-03-01T03:44:18;8.00;;;3.70;;
55065;SDS011;40964;42.114;24.220;2023-03-01T03:46:43;10.70;;;4.22;;
55065;SDS011;40964;42.114;24.220;2023-03-01T03:49:09;9.88;;;3.80;;
55065;SDS011;40964;42.114;24.220;2023-03-01T03:51:34;8.90;;;4.43;;
55065;SDS011;40964;42.114;24.220;2023-03-01T03:53:59;10.05;;;4.35;;
55065;SDS011;40964;42.114;24.220;2023-03-01T03:56:25;11.95;;;4.35;;
55065;SDS011;40964;42.114;24.220;2023-03-01T03:58:51;10.32;;;4.25;;
55065;SDS011;40964;42.114;24.220;2023-03-01T04:01:17;8.20;;;3.63;;
55065;SDS011;40964;42.114;24.220;2023-03-01T04:03:43;8.73;;;4.30;;
55065;SDS011;40964;42.114;24.220;2023-03-01T04:06:11;7.70;;;3.75;;
55065;SDS011;40964;42.114;24.220;2023-03-01T04:08:37;9.02;;;3.83;;
55065;SDS011;40964;42.114;24.220;2023-03-01T04:11:03;8.90;;;4.13;;
55065;SDS011;40964;42.114;24.220;2023-03-01T04:13:48;9.88;;;4.40;;
55065;SDS011;40964;42.114;24.220;2023-03-01T04:16:15;10.13;;;4.82;;
55065;SDS011;40964;42.114;24.220;2023-03-01T04:18:41;10.55;;;4.18;;
55065;SDS011;40964;42.114;24.220;2023-03-01T04:21:06;6.80;;;3.75;;
55065;SDS011;40964;42.114;24.220;2023-03-01T04:23:32;10.70;;;4.07;;
55065;SDS011;40964;42.114;24.220;2023-03-01T04:25:58;7.10;;;3.80;;
55065;SDS011;40964;42.114;24.220;2023-03-01T04:28:31;7.93;;;3.60;;
55065;SDS011;40964;42.114;24.220;2023-03-01T04:31:08;9.60;;;4.20;;
55065;SDS011;40964;42.114;24.220;2023-03-01T04:33:41;8.23;;;3.47;;
55065;SDS011;40964;42.114;24.220;2023-03-01T04:36:16;9.23;;;4.20;;
55065;SDS011;40964;42.114;24.220;2023-03-01T04:38:43;13.57;;;4.25;;
55065;SDS011;40964;42.114;24.220;2023-03-01T04:41:12;12.32;;;4.47;;
55065;SDS011;40964;42.114;24.220;2023-03-01T04:43:38;12.45;;;5.60;;
55065;SDS011;40964;42.114;24.220;2023-03-01T04:46:05;10.45;;;4.25;;
55065;SDS011;40964;42.114;24.220;2023-03-01T04:48:52;16.08;;;5.00;;
55065;SDS011;40964;42.114;24.220;2023-03-01T04:51:36;11.52;;;4.25;;
55065;SDS011;40964;42.114;24.220;2023-03-01T04:54:02;11.63;;;5.18;;
55065;SDS011;40964;42.114;24.220;2023-03-01T04:56:47;8.45;;;4.00;;
55065;SDS011;40964;42.114;24.220;2023-03-01T04:59:30;8.15;;;3.70;;
55065;SDS011;40964;42.114;24.220;2023-03-01T05:02:14;8.68;;;3.83;;
55065;SDS011;40964;42.114;24.220;2023-03-01T05:04:58;8.35;;;3.83;;
55065;SDS011;40964;42.114;24.220;2023-03-01T05:07:24;11.02;;;4.70;;
55065;SDS011;40964;42.114;24.220;2023-03-01T05:09:51;9.55;;;3.75;;
55065;SDS011;40964;42.114;24.220;2023-03-01T05:12:16;8.18;;;3.60;;
55065;SDS011;40964;42.114;24.220;2023-03-01T05:14:42;7.50;;;3.50;;
55065;SDS011;40964;42.114;24.220;2023-03-01T05:17:07;8.82;;;3.80;;
55065;SDS011;40964;42.114;24.220;2023-03-01T05:19:33;7.50;;;3.75;;
55065;SDS011;40964;42.114;24.220;2023-03-01T05:21:59;10.57;;;4.55;;
55065;SDS011;40964;42.114;24.220;2023-03-01T05:24:29;17.42;;;7.30;;
55065;SDS011;40964;42.114;24.220;2023-03-01T05:26:56;23.25;;;7.63;;
55065;SDS011;40964;42.114;24.220;2023-03-01T05:29:22;57.28;;;5.20;;
55065;SDS011;40964;42.114;24.220;2023-03-01T05:31:53;61.08;;;7.95;;
55065;SDS011;40964;42.114;24.220;2023-03-01T05:34:27;84.53;;;9.63;;
55065;SDS011;40964;42.114;24.220;2023-03-01T05:36:57;45.30;;;7.93;;
55065;SDS011;40964;42.114;24.220;2023-03-01T05:39:24;29.77;;;6.63;;
55065;SDS011;40964;42.114;24.220;2023-03-01T05:41:52;93.10;;;9.02;;
55065;SDS011;40964;42.114;24.220;2023-03-01T05:44:19;96.70;;;8.82;;
55065;SDS011;40964;42.114;24.220;2023-03-01T05:46:45;61.42;;;7.00;;
55065;SDS011;40964;42.114;24.220;2023-03-01T05:49:11;50.13;;;8.82;;
55065;SDS011;40964;42.114;24.220;2023-03-01T05:51:38;37.20;;;7.93;;
55065;SDS011;40964;42.114;24.220;2023-03-01T05:54:05;26.08;;;8.85;;
55065;SDS011;40964;42.114;24.220;2023-03-01T05:56:34;40.33;;;7.53;;
55065;SDS011;40964;42.114;24.220;2023-03-01T05:59:01;18.02;;;7.13;;
55065;SDS011;40964;42.114;24.220;2023-03-01T06:01:27;25.92;;;7.22;;
55065;SDS011;40964;42.114;24.220;2023-03-01T06:03:54;20.42;;;6.55;;
55065;SDS011;40964;42.114;24.220;2023-03-01T06:06:20;19.35;;;7.55;;
55065;SDS011;40964;42.114;24.220;2023-03-01T06:08:46;16.55;;;6.72;;
55065;SDS011;40964;42.114;24.220;2023-03-01T06:11:11;21.50;;;7.32;;
55065;SDS011;40964;42.114;24.220;2023-03-01T06:13:37;27.98;;;10.88;;
55065;SDS011;40964;42.114;24.220;2023-03-01T06:16:05;18.95;;;7.45;;
55065;SDS011;40964;42.114;24.220;2023-03-01T06:18:31;27.77;;;9.77;;
55065;SDS011;40964;42.114;24.220;2023-03-01T06:20:57;25.63;;;10.27;;
55065;SDS011;40964;42.114;24.220;2023-03-01T06:23:23;32.25;;;12.25;;
55065;SDS011;40964;42.114;24.220;2023-03-01T06:25:49;29.00;;;10.20;;
55065;SDS011;40964;42.114;24.220;2023-03-01T06:28:15;28.42;;;11.20;;
55065;SDS011;40964;42.114;24.220;2023-03-01T06:30:40;22.67;;;8.02;;
55065;SDS011;40964;42.114;24.220;2023-03-01T06:33:06;20.33;;;6.80;;
55065;SDS011;40964;42.114;24.220;2023-03-01T06:35:31;23.48;;;9.93;;
55065;SDS011;40964;42.114;24.220;2023-03-01T06:37:58;26.95;;;10.73;;
55065;SDS011;40964;42.114;24.220;2023-03-01T06:40:25;25.38;;;9.45;;
55065;SDS011;40964;42.114;24.220;2023-03-01T06:42:50;18.33;;;7.05;;
55065;SDS011;40964;42.114;24.220;2023-03-01T06:45:17;15.25;;;6.30;;
55065;SDS011;40964;42.114;24.220;2023-03-01T06:47:44;14.13;;;6.15;;
55065;SDS011;40964;42.114;24.220;2023-03-01T06:50:10;12.90;;;5.40;;
55065;SDS011;40964;42.114;24.220;2023-03-01T06:52:36;14.43;;;6.00;;
55065;SDS011;40964;42.114;24.220;2023-03-01T06:55:04;18.75;;;8.60;;
55065;SDS011;40964;42.114;24.220;2023-03-01T06:57:30;18.40;;;7.63;;
55065;SDS011;40964;42.114;24.220;2023-03-01T06:59:56;20.08;;;6.57;;
55065;SDS011;40964;42.114;24.220;2023-03-01T07:02:22;15.52;;;5.85;;
55065;SDS011;40964;42.114;24.220;2023-03-01T07:04:51;19.45;;;6.10;;
55065;SDS011;40964;42.114;24.220;2023-03-01T07:07:17;14.27;;;5.63;;
55065;SDS011;40964;42.114;24.220;2023-03-01T07:09:43;12.00;;;5.57;;
55065;SDS011;40964;42.114;24.220;2023-03-01T07:12:09;12.48;;;6.40;;
55065;SDS011;40964;42.114;24.220;2023-03-01T07:14:35;10.43;;;5.13;;
55065;SDS011;40964;42.114;24.220;2023-03-01T07:17:00;14.30;;;7.15;;
55065;SDS011;40964;42.114;24.220;2023-03-01T07:19:26;19.80;;;6.82;;
55065;SDS011;40964;42.114;24.220;2023-03-01T07:21:51;21.58;;;7.90;;
55065;SDS011;40964;42.114;24.220;2023-03-01T07:24:17;19.45;;;8.95;;
55065;SDS011;40964;42.114;24.220;2023-03-01T07:26:42;14.15;;;6.95;;
55065;SDS011;40964;42.114;24.220;2023-03-01T07:29:09;15.93;;;8.52;;
55065;SDS011;40964;42.114;24.220;2023-03-01T07:31:35;21.63;;;7.20;;
55065;SDS011;40964;42.114;24.220;2023-03-01T07:34:01;19.25;;;8.07;;
55065;SDS011;40964;42.114;24.220;2023-03-01T07:36:30;12.00;;;5.35;;
55065;SDS011;40964;42.114;24.220;2023-03-01T07:38:55;15.15;;;5.97;;
55065;SDS011;40964;42.114;24.220;2023-03-01T07:41:21;11.27;;;5.18;;
55065;SDS011;40964;42.114;24.220;2023-03-01T07:43:47;17.38;;;6.28;;
55065;SDS011;40964;42.114;24.220;2023-03-01T07:46:12;14.27;;;6.40;;
55065;SDS011;40964;42.114;24.220;2023-03-01T07:48:38;14.60;;;5.45;;
55065;SDS011;40964;42.114;24.220;2023-03-01T07:51:04;11.90;;;4.72;;
55065;SDS011;40964;42.114;24.220;2023-03-01T07:53:31;13.52;;;5.47;;
55065;SDS011;40964;42.114;24.220;2023-03-01T07:56:11;17.85;;;5.43;;
55065;SDS011;40964;42.114;24.220;2023-03-01T07:58:39;16.52;;;6.85;;
55065;SDS011;40964;42.114;24.220;2023-03-01T08:01:06;15.82;;;6.68;;
55065;SDS011;40964;42.114;24.220;2023-03-01T08:03:35;16.38;;;6.50;;
55065;SDS011;40964;42.114;24.220;2023-03-01T08:06:02;12.02;;;5.68;;
55065;SDS011;40964;42.114;24.220;2023-03-01T08:08:29;18.33;;;8.48;;
55065;SDS011;40964;42.114;24.220;2023-03-01T08:10:58;20.70;;;8.57;;
55065;SDS011;40964;42.114;24.220;2023-03-01T08:13:25;17.67;;;7.68;;
55065;SDS011;40964;42.114;24.220;2023-03-01T08:15:51;15.82;;;6.85;;
55065;SDS011;40964;42.114;24.220;2023-03-01T08:18:17;19.02;;;7.35;;
55065;SDS011;40964;42.114;24.220;2023-03-01T08:20:44;14.48;;;5.68;;
55065;SDS011;40964;42.114;24.220;2023-03-01T08:23:09;18.00;;;8.07;;
55065;SDS011;40964;42.114;24.220;2023-03-01T08:25:35;15.48;;;7.35;;
55065;SDS011;40964;42.114;24.220;2023-03-01T08:28:01;12.13;;;6.70;;
55065;SDS011;40964;42.114;24.220;2023-03-01T08:30:26;16.05;;;6.47;;
55065;SDS011;40964;42.114;24.220;2023-03-01T08:32:51;18.38;;;7.80;;
55065;SDS011;40964;42.114;24.220;2023-03-01T08:35:17;17.58;;;6.95;;
55065;SDS011;40964;42.114;24.220;2023-03-01T08:37:43;12.02;;;5.82;;
55065;SDS011;40964;42.114;24.220;2023-03-01T08:40:09;18.83;;;7.55;;
55065;SDS011;40964;42.114;24.220;2023-03-01T08:42:36;13.73;;;6.00;;
55065;SDS011;40964;42.114;24.220;2023-03-01T08:45:05;12.15;;;5.88;;
55065;SDS011;40964;42.114;24.220;2023-03-01T08:47:32;12.93;;;5.93;;
55065;SDS011;40964;42.114;24.220;2023-03-01T08:50:01;11.88;;;5.53;;
55065;SDS011;40964;42.114;24.220;2023-03-01T08:52:27;10.43;;;5.25;;
55065;SDS011;40964;42.114;24.220;2023-03-01T08:54:53;12.18;;;5.70;;
55065;SDS011;40964;42.114;24.220;2023-03-01T08:57:19;10.80;;;4.97;;
55065;SDS011;40964;42.114;24.220;2023-03-01T08:59:44;9.10;;;4.38;;
55065;SDS011;40964;42.114;24.220;2023-03-01T09:02:11;7.15;;;3.90;;
55065;SDS011;40964;42.114;24.220;2023-03-01T09:04:39;16.00;;;5.47;;
55065;SDS011;40964;42.114;24.220;2023-03-01T09:07:05;15.82;;;6.35;;
55065;SDS011;40964;42.114;24.220;2023-03-01T09:09:31;10.63;;;4.78;;
55065;SDS011;40964;42.114;24.220;2023-03-01T09:11:56;12.27;;;5.35;;
55065;SDS011;40964;42.114;24.220;2023-03-01T09:14:22;13.02;;;6.28;;
55065;SDS011;40964;42.114;24.220;2023-03-01T09:16:47;22.75;;;8.82;;
55065;SDS011;40964;42.114;24.220;2023-03-01T09:19:13;15.57;;;6.32;;
55065;SDS011;40964;42.114;24.220;2023-03-01T09:21:39;11.95;;;5.70;;
55065;SDS011;40964;42.114;24.220;2023-03-01T09:24:04;14.02;;;6.53;;
55065;SDS011;40964;42.114;24.220;2023-03-01T09:26:30;11.35;;;5.85;;
55065;SDS011;40964;42.114;24.220;2023-03-01T09:28:56;12.45;;;5.13;;
55065;SDS011;40964;42.114;24.220;2023-03-01T09:31:22;16.38;;;6.60;;
55065;SDS011;40964;42.114;24.220;2023-03-01T09:33:49;21.33;;;8.75;;
55065;SDS011;40964;42.114;24.220;2023-03-01T09:36:17;27.65;;;11.23;;
55065;SDS011;40964;42.114;24.220;2023-03-01T09:38:46;21.35;;;7.43;;
55065;SDS011;40964;42.114;24.220;2023-03-01T09:44:03;10.10;;;4.55;;
55065;SDS011;40964;42.114;24.220;2023-03-01T09:46:40;9.98;;;4.22;;
55065;SDS011;40964;42.114;24.220;2023-03-01T09:49:19;13.20;;;6.35;;
55065;SDS011;40964;42.114;24.220;2023-03-01T09:52:34;15.57;;;7.00;;
55065;SDS011;40964;42.114;24.220;2023-03-01T09:54:57;11.63;;;5.20;;
55065;SDS011;40964;42.114;24.220;2023-03-01T10:05:52;8.30;;;3.95;;
55065;SDS011;40964;42.114;24.220;2023-03-01T10:11:38;6.18;;;3.53;;
55065;SDS011;40964;42.114;24.220;2023-03-01T10:14:12;5.47;;;3.40;;
55065;SDS011;40964;42.114;24.220;2023-03-01T10:16:54;5.22;;;3.08;;
55065;SDS011;40964;42.114;24.220;2023-03-01T10:22:16;9.07;;;3.72;;
55065;SDS011;40964;42.114;24.220;2023-03-01T10:24:48;9.90;;;4.10;;
55065;SDS011;40964;42.114;24.220;2023-03-01T10:27:26;7.78;;;4.30;;
55065;SDS011;40964;42.114;24.220;2023-03-01T10:30:09;6.75;;;3.50;;
55065;SDS011;40964;42.114;24.220;2023-03-01T10:32:46;11.23;;;4.88;;
55065;SDS011;40964;42.114;24.220;2023-03-01T10:35:17;10.23;;;4.97;;
55065;SDS011;40964;42.114;24.220;2023-03-01T10:40:50;13.35;;;6.55;;
55065;SDS011;40964;42.114;24.220;2023-03-01T10:43:15;15.82;;;6.53;;
55065;SDS011;40964;42.114;24.220;2023-03-01T10:45:41;13.63;;;6.85;;
55065;SDS011;40964;42.114;24.220;2023-03-01T10:48:23;7.45;;;3.97;;
55065;SDS011;40964;42.114;24.220;2023-03-01T10:53:24;14.23;;;5.05;;
55065;SDS011;40964;42.114;24.220;2023-03-01T10:58:33;16.07;;;8.63;;
55065;SDS011;40964;42.114;24.220;2023-03-01T11:01:01;16.85;;;7.22;;
55065;SDS011;40964;42.114;24.220;2023-03-01T11:03:32;16.42;;;7.53;;
55065;SDS011;40964;42.114;24.220;2023-03-01T11:08:39;9.85;;;5.25;;
55065;SDS011;40964;42.114;24.220;2023-03-01T11:11:17;11.23;;;6.25;;
55065;SDS011;40964;42.114;24.220;2023-03-01T11:13:50;16.30;;;8.02;;
55065;SDS011;40964;42.114;24.220;2023-03-01T11:16:26;13.18;;;6.97;;
55065;SDS011;40964;42.114;24.220;2023-03-01T11:18:59;13.20;;;6.68;;
55065;SDS011;40964;42.114;24.220;2023-03-01T11:21:34;13.00;;;5.80;;
55065;SDS011;40964;42.114;24.220;2023-03-01T11:24:01;13.60;;;6.13;;
55065;SDS011;40964;42.114;24.220;2023-03-01T11:26:29;10.20;;;5.25;;
55065;SDS011;40964;42.114;24.220;2023-03-01T11:29:00;12.50;;;6.35;;
55065;SDS011;40964;42.114;24.220;2023-03-01T11:31:31;17.13;;;6.88;;
55065;SDS011;40964;42.114;24.220;2023-03-01T11:33:59;21.95;;;9.73;;
55065;SDS011;40964;42.114;24.220;2023-03-01T11:36:46;20.48;;;9.48;;
55065;SDS011;40964;42.114;24.220;2023-03-01T11:39:24;20.63;;;8.43;;
55065;SDS011;40964;42.114;24.220;2023-03-01T11:42:29;21.85;;;10.07;;
55065;SDS011;40964;42.114;24.220;2023-03-01T11:44:54;12.98;;;5.80;;
55065;SDS011;40964;42.114;24.220;2023-03-01T11:55:46;9.65;;;5.10;;
55065;SDS011;40964;42.114;24.220;2023-03-01T12:06:59;17.30;;;8.32;;
55065;SDS011;40964;42.114;24.220;2023-03-01T12:12:15;12.23;;;5.93;;
55065;SDS011;40964;42.114;24.220;2023-03-01T12:20:20;10.27;;;4.75;;
55065;SDS011;40964;42.114;24.220;2023-03-01T12:25:54;16.83;;;6.32;;
55065;SDS011;40964;42.114;24.220;2023-03-01T12:36:49;15.38;;;6.88;;
55065;SDS011;40964;42.114;24.220;2023-03-01T12:42:25;11.70;;;5.65;;
55065;SDS011;40964;42.114;24.220;2023-03-01T12:50:23;10.77;;;5.88;;
55065;SDS011;40964;42.114;24.220;2023-03-01T12:52:52;15.30;;;7.20;;
55065;SDS011;40964;42.114;24.220;2023-03-01T12:55:36;12.57;;;6.28;;
55065;SDS011;40964;42.114;24.220;2023-03-01T12:58:07;15.95;;;7.60;;
55065;SDS011;40964;42.114;24.220;2023-03-01T13:17:53;13.10;;;6.00;;
55065;SDS011;40964;42.114;24.220;2023-03-01T13:20:21;14.52;;;7.00;;
55065;SDS011;40964;42.114;24.220;2023-03-01T13:23:00;19.73;;;8.68;;
55065;SDS011;40964;42.114;24.220;2023-03-01T13:25:28;20.30;;;9.07;;
55065;SDS011;40964;42.114;24.220;2023-03-01T13:27:55;16.30;;;7.03;;
55065;SDS011;40964;42.114;24.220;2023-03-01T13:30:53;14.35;;;6.13;;
55065;SDS011;40964;42.114;24.220;2023-03-01T13:35:54;17.33;;;6.85;;
55065;SDS011;40964;42.114;24.220;2023-03-01T13:41:11;16.45;;;7.35;;
55065;SDS011;40964;42.114;24.220;2023-03-01T13:43:38;12.68;;;5.40;;
55065;SDS011;40964;42.114;24.220;2023-03-01T13:48:45;18.23;;;8.40;;
55065;SDS011;40964;42.114;24.220;2023-03-01T13:51:15;17.60;;;8.25;;
55065;SDS011;40964;42.114;24.220;2023-03-01T13:53:46;28.20;;;12.88;;
55065;SDS011;40964;42.114;24.220;2023-03-01T13:56:16;23.13;;;11.57;;
55065;SDS011;40964;42.114;24.220;2023-03-01T13:59:13;16.15;;;8.07;;
55065;SDS011;40964;42.114;24.220;2023-03-01T14:01:44;16.77;;;8.02;;
55065;SDS011;40964;42.114;24.220;2023-03-01T14:04:20;14.23;;;7.60;;
55065;SDS011;40964;42.114;24.220;2023-03-01T14:06:51;20.02;;;9.57;;
55065;SDS011;40964;42.114;24.220;2023-03-01T14:09:21;18.92;;;8.50;;
55065;SDS011;40964;42.114;24.220;2023-03-01T14:14:54;13.38;;;7.72;;
55065;SDS011;40964;42.114;24.220;2023-03-01T14:17:29;15.50;;;7.95;;
55065;SDS011;40964;42.114;24.220;2023-03-01T14:20:12;12.70;;;6.88;;
55065;SDS011;40964;42.114;24.220;2023-03-01T14:22:43;17.70;;;7.93;;
55065;SDS011;40964;42.114;24.220;2023-03-01T14:27:44;17.05;;;7.78;;
55065;SDS011;40964;42.114;24.220;2023-03-01T14:30:14;12.40;;;6.80;;
55065;SDS011;40964;42.114;24.220;2023-03-01T14:33:02;15.30;;;7.05;;
55065;SDS011;40964;42.114;24.220;2023-03-01T14:35:32;21.85;;;8.60;;
55065;SDS011;40964;42.114;24.220;2023-03-01T14:37:59;12.35;;;6.22;;
55065;SDS011;40964;42.114;24.220;2023-03-01T14:42:52;36.50;;;12.77;;
55065;SDS011;40964;42.114;24.220;2023-03-01T14:45:20;19.73;;;8.18;;
55065;SDS011;40964;42.114;24.220;2023-03-01T14:47:45;29.45;;;12.82;;
55065;SDS011;40964;42.114;24.220;2023-03-01T14:52:50;12.90;;;5.30;;
55065;SDS011;40964;42.114;24.220;2023-03-01T14:55:19;18.35;;;7.50;;
55065;SDS011;40964;42.114;24.220;2023-03-01T14:57:50;16.02;;;7.70;;
55065;SDS011;40964;42.114;24.220;2023-03-01T15:00:19;18.92;;;9.00;;
55065;SDS011;40964;42.114;24.220;2023-03-01T15:02:47;32.08;;;14.45;;
55065;SDS011;40964;42.114;24.220;2023-03-01T15:05:15;16.20;;;7.35;;
55065;SDS011;40964;42.114;24.220;2023-03-01T15:07:50;14.80;;;6.72;;
55065;SDS011;40964;42.114;24.220;2023-03-01T15:10:19;16.42;;;7.30;;
55065;SDS011;40964;42.114;24.220;2023-03-01T15:12:52;20.08;;;8.85;;
55065;SDS011;40964;42.114;24.220;2023-03-01T15:15:19;18.13;;;8.57;;
55065;SDS011;40964;42.114;24.220;2023-03-01T15:17:52;18.40;;;8.35;;
55065;SDS011;40964;42.114;24.220;2023-03-01T15:20:23;15.73;;;7.03;;
55065;SDS011;40964;42.114;24.220;2023-03-01T15:22:52;19.48;;;9.10;;
55065;SDS011;40964;42.114;24.220;2023-03-01T15:25:19;17.10;;;8.45;;
55065;SDS011;40964;42.114;24.220;2023-03-01T15:27:48;14.13;;;8.25;;
55065;SDS011;40964;42.114;24.220;2023-03-01T15:30:18;16.27;;;8.15;;
55065;SDS011;40964;42.114;24.220;2023-03-01T15:32:47;16.48;;;7.78;;
55065;SDS011;40964;42.114;24.220;2023-03-01T15:38:22;20.23;;;9.60;;
55065;SDS011;40964;42.114;24.220;2023-03-01T15:40:50;19.10;;;8.23;;
55065;SDS011;40964;42.114;24.220;2023-03-01T15:46:50;16.33;;;8.15;;
55065;SDS011;40964;42.114;24.220;2023-03-01T15:49:00;18.63;;;9.70;;
55065;SDS011;40964;42.114;24.220;2023-03-01T15:51:29;20.77;;;10.00;;
55065;SDS011;40964;42.114;24.220;2023-03-01T15:54:01;19.20;;;9.00;;
55065;SDS011;40964;42.114;24.220;2023-03-01T15:56:29;30.55;;;13.88;;
55065;SDS011;40964;42.114;24.220;2023-03-01T15:58:59;26.65;;;13.07;;
55065;SDS011;40964;42.114;24.220;2023-03-01T16:01:27;32.63;;;14.77;;
55065;SDS011;40964;42.114;24.220;2023-03-01T16:03:53;29.20;;;14.45;;
55065;SDS011;40964;42.114;24.220;2023-03-01T16:06:19;24.73;;;12.05;;
55065;SDS011;40964;42.114;24.220;2023-03-01T16:08:44;21.10;;;10.02;;
55065;SDS011;40964;42.114;24.220;2023-03-01T16:11:14;15.65;;;7.53;;
55065;SDS011;40964;42.114;24.220;2023-03-01T16:13:42;16.60;;;7.65;;
55065;SDS011;40964;42.114;24.220;2023-03-01T16:16:09;11.35;;;6.88;;
55065;SDS011;40964;42.114;24.220;2023-03-01T16:18:37;19.38;;;8.50;;
55065;SDS011;40964;42.114;24.220;2023-03-01T16:21:04;19.13;;;9.30;;
55065;SDS011;40964;42.114;24.220;2023-03-01T16:23:30;14.88;;;7.60;;
55065;SDS011;40964;42.114;24.220;2023-03-01T16:25:58;14.10;;;7.03;;
55065;SDS011;40964;42.114;24.220;2023-03-01T16:28:24;18.77;;;7.68;;
55065;SDS011;40964;42.114;24.220;2023-03-01T16:30:49;16.05;;;8.43;;
55065;SDS011;40964;42.114;24.220;2023-03-01T16:33:15;20.50;;;9.10;;
55065;SDS011;40964;42.114;24.220;2023-03-01T16:35:41;21.45;;;10.40;;
55065;SDS011;40964;42.114;24.220;2023-03-01T16:38:08;28.42;;;14.00;;
55065;SDS011;40964;42.114;24.220;2023-03-01T16:40:34;27.52;;;13.70;;
55065;SDS011;40964;42.114;24.220;2023-03-01T16:43:00;29.42;;;13.98;;